Salem, Missouri
Current Conditions -  °F | °C
As of 9:58 PM on Tuesday 27 Jan 2015 (Local Time) from KTBN Reporting Station
Clear Clear  
Wind Chill: 37°   Ceiling: Unl
Heat Index: 40°   Visibility: 10mi
Dew Point: 31°   Wind: 5mph
Humidity: 70%   Direction: 110°ESE
Pressure: 30.14"   Gusts: NA
Location:  37.65°N, 91.54°W
Report Text: KTBN 280358Z AUTO 11004KT 10SM CLR 05/00 A3014 RMK AO2 SLPNO T00461004
Loading
Personal Weather Stations






























Interactive Weather Map New forecast layout! Learn more

10-Day Weather Forecast

Advertisements
Track Severe Weather on mobile